Time,TemperatureF,DewpointF,PressureIn,WindDirection,WindDirectionDegrees,WindSpeedMPH,WindSpeedGustMPH,Humidity,HourlyPrecipIn,Conditions,Clouds,dailyrainin,SoftwareType,DateUTC
2013-12-14 00:22:00,31.0,30.0,30.38,SW,215,0.0,1.0,95,0.00,,,0.00,,2013-12-14 08:22:00,
2013-12-14 00:52:00,31.0,30.0,30.38,SW,215,0.0,1.0,95,0.00,,,0.00,,2013-12-14 08:52:00,
2013-12-14 01:22:00,32.0,31.0,30.37,SW,215,0.0,0.0,96,0.00,,,0.00,,2013-12-14 09:22:00,
2013-12-14 01:43:00,31.0,30.0,30.38,SW,215,0.0,0.0,95,0.00,,,0.00,,2013-12-14 09:43:00,
2013-12-14 01:54:00,31.0,30.0,30.38,SW,215,0.0,0.0,95,0.00,,,0.00,,2013-12-14 09:54:00,
2013-12-14 02:23:00,31.0,30.0,30.38,SW,215,0.0,1.0,95,0.00,,,0.00,,2013-12-14 10:23:00,
2013-12-14 02:43:00,31.0,30.0,30.38,SW,215,0.0,1.0,95,0.00,,,0.00,,2013-12-14 10:43:00,
2013-12-14 02:53:00,31.0,30.0,30.38,SW,216,0.0,1.0,95,0.00,,,0.00,,2013-12-14 10:53:00,
2013-12-14 03:22:00,31.0,30.0,30.38,SW,215,0.0,1.0,96,0.00,,,0.00,,2013-12-14 11:22:00,
2013-12-14 03:42:00,31.0,30.0,30.37,SW,215,0.0,1.0,96,0.00,,,0.00,,2013-12-14 11:42:00,
2013-12-14 03:52:00,31.0,30.0,30.38,SW,215,0.0,0.0,96,0.00,,,0.00,,2013-12-14 11:52:00,
2013-12-14 04:12:00,31.0,30.0,30.38,SW,215,0.0,0.0,96,0.00,,,0.00,,2013-12-14 12:12:00,
2013-12-14 04:22:00,31.0,30.0,30.38,SW,215,0.0,0.0,96,0.00,,,0.00,,2013-12-14 12:22:00,
2013-12-14 04:42:00,31.0,30.0,30.38,SW,216,0.0,1.0,96,0.00,,,0.00,,2013-12-14 12:42:00,
2013-12-14 04:52:00,31.0,30.0,30.38,SW,215,0.0,0.0,96,0.00,,,0.00,,2013-12-14 12:52:00,
2013-12-14 05:22:00,31.0,30.0,30.37,SW,216,1.0,2.0,96,0.00,,,0.00,,2013-12-14 13:22:00,
2013-12-14 05:42:00,31.0,30.0,30.36,SW,215,0.0,2.0,96,0.00,,,0.00,,2013-12-14 13:42:00,
2013-12-14 05:52:00,31.0,30.0,30.37,SW,215,0.0,1.0,96,0.00,,,0.00,,2013-12-14 13:52:00,
2013-12-14 06:22:00,31.0,30.0,30.36,SW,216,0.0,2.0,96,0.00,,,0.00,,2013-12-14 14:22:00,
2013-12-14 06:42:00,31.0,30.0,30.36,SW,215,0.0,2.0,96,0.00,,,0.00,,2013-12-14 14:42:00,
2013-12-14 06:52:00,31.0,30.0,30.37,SW,215,1.0,2.0,96,0.00,,,0.00,,2013-12-14 14:52:00,
2013-12-14 07:22:00,31.0,30.0,30.35,SW,216,0.0,1.0,96,0.00,,,0.00,,2013-12-14 15:22:00,
2013-12-14 07:43:00,31.0,30.0,30.35,SW,215,0.0,1.0,96,0.00,,,0.00,,2013-12-14 15:43:00,
2013-12-14 07:53:00,31.0,30.0,30.36,SW,215,2.0,5.0,96,0.00,,,0.00,,2013-12-14 15:53:00,
2013-12-14 08:13:00,31.0,30.0,30.34,SSW,208,4.0,7.0,96,0.00,,,0.00,,2013-12-14 16:13:00,
2013-12-14 08:23:00,32.0,31.0,30.34,SW,224,1.0,5.0,96,0.00,,,0.00,,2013-12-14 16:23:00,
2013-12-14 08:43:00,32.0,31.0,30.34,South,182,3.0,6.0,96,0.00,,,0.00,,2013-12-14 16:43:00,
2013-12-14 08:52:00,32.0,31.0,30.35,SW,217,4.0,7.0,97,0.00,,,0.00,,2013-12-14 16:52:00,
2013-12-14 09:22:00,33.0,32.0,30.38,WSW,245,0.0,6.0,97,0.00,,,0.00,,2013-12-14 17:22:00,
2013-12-14 09:42:00,33.0,32.0,30.39,SSW,210,0.0,1.0,97,0.00,,,0.00,,2013-12-14 17:42:00,
2013-12-14 09:53:00,33.0,32.0,30.39,SSW,210,0.0,2.0,97,0.00,,,0.00,,2013-12-14 17:53:00,
2013-12-14 10:11:00,34.0,33.0,30.40,SSW,210,0.0,3.0,97,0.00,,,0.00,,2013-12-14 18:11:00,
2013-12-14 10:21:00,35.0,34.0,30.40,SSW,210,0.0,3.0,97,0.00,,,0.00,,2013-12-14 18:21:00,
2013-12-14 10:42:00,36.0,35.0,30.40,SSW,210,0.0,0.0,97,0.00,,,0.00,,2013-12-14 18:42:00,
2013-12-14 10:52:00,37.0,36.0,30.40,SSW,210,0.0,0.0,97,0.00,,,0.00,,2013-12-14 18:52:00,
2013-12-14 11:12:00,37.0,36.0,30.40,SSW,210,0.0,2.0,97,0.00,,,0.00,,2013-12-14 19:12:00,
2013-12-14 11:21:00,37.0,36.0,30.40,SSW,210,0.0,1.0,98,0.00,,,0.00,,2013-12-14 19:21:00,
2013-12-14 11:41:00,38.0,37.0,30.39,SSW,210,1.0,2.0,98,0.00,,,0.00,,2013-12-14 19:41:00,
2013-12-14 11:52:00,40.0,39.0,30.38,SSW,200,1.0,5.0,98,0.00,,,0.00,,2013-12-14 19:52:00,
2013-12-14 12:22:00,43.0,42.0,30.37,SSW,213,0.0,5.0,96,0.00,,,0.00,,2013-12-14 20:22:00,
2013-12-14 12:42:00,44.0,42.0,30.37,SW,217,1.0,4.0,93,0.00,,,0.00,,2013-12-14 20:42:00,
2013-12-14 12:53:00,44.0,42.0,30.37,SW,223,1.0,3.0,92,0.00,,,0.00,,2013-12-14 20:53:00,
2013-12-14 13:11:00,45.0,42.0,30.37,SW,225,0.0,5.0,90,0.00,,,0.00,,2013-12-14 21:11:00,
2013-12-14 14:23:00,46.0,43.0,30.36,SSW,207,1.0,3.0,89,0.00,,,0.00,,2013-12-14 22:23:00,
2013-12-14 14:42:00,47.0,43.0,30.36,SSW,210,5.0,6.0,86,0.00,,,0.00,,2013-12-14 22:42:00,
2013-12-14 14:52:00,48.0,43.0,30.36,SSW,210,2.0,5.0,84,0.00,,,0.00,,2013-12-14 22:52:00,
2013-12-14 15:22:00,48.0,44.0,30.36,SW,230,2.0,5.0,85,0.00,,,0.00,,2013-12-14 23:22:00,
2013-12-14 15:53:00,47.0,43.0,30.36,SSW,201,0.0,4.0,86,0.00,,,0.00,,2013-12-14 23:53:00,
2013-12-14 16:11:00,47.0,44.0,30.36,SSW,200,0.0,2.0,88,0.00,,,0.00,,2013-12-15 00:11:00,
2013-12-14 16:22:00,46.0,43.0,30.36,SSW,201,0.0,3.0,88,0.00,,,0.00,,2013-12-15 00:22:00,
2013-12-14 16:42:00,45.0,42.0,30.37,SSW,201,0.0,2.0,88,0.00,,,0.00,,2013-12-15 00:42:00,
2013-12-14 16:52:00,45.0,42.0,30.37,SSW,200,0.0,2.0,89,0.00,,,0.00,,2013-12-15 00:52:00,
2013-12-14 17:11:00,44.0,41.0,30.37,SSW,201,0.0,1.0,90,0.00,,,0.00,,2013-12-15 01:11:00,
2013-12-14 17:21:00,43.0,41.0,30.37,SSW,201,0.0,1.0,91,0.00,,,0.00,,2013-12-15 01:21:00,
2013-12-14 17:41:00,42.0,40.0,30.37,SSW,200,0.0,0.0,92,0.00,,,0.00,,2013-12-15 01:41:00,
2013-12-14 17:52:00,41.0,39.0,30.36,SSW,201,0.0,1.0,92,0.00,,,0.00,,2013-12-15 01:52:00,
2013-12-14 18:22:00,40.0,38.0,30.37,SSW,201,0.0,2.0,94,0.00,,,0.00,,2013-12-15 02:22:00,
2013-12-14 18:42:00,39.0,38.0,30.38,SSW,200,1.0,4.0,95,0.00,,,0.00,,2013-12-15 02:42:00,
2013-12-14 18:52:00,38.0,37.0,30.38,SSW,200,1.0,3.0,95,0.00,,,0.00,,2013-12-15 02:52:00,
2013-12-14 19:12:00,38.0,37.0,30.38,SSW,200,2.0,4.0,95,0.00,,,0.00,,2013-12-15 03:12:00,
2013-12-14 19:22:00,38.0,37.0,30.38,SSW,200,3.0,8.0,96,0.00,,,0.00,,2013-12-15 03:22:00,
2013-12-14 19:43:00,39.0,38.0,30.38,SSW,198,2.0,9.0,96,0.00,,,0.00,,2013-12-15 03:43:00,
2013-12-14 19:54:00,38.0,37.0,30.38,SSW,206,0.0,2.0,95,0.00,,,0.00,,2013-12-15 03:54:00,
2013-12-14 20:02:00,-999.0,-99.9,30.38,SSW,206,0.0,0.0,95,0.00,,,0.00,,2013-12-15 04:02:00,
2013-12-14 20:13:00,38.0,37.0,30.38,SSW,206,0.0,0.0,95,0.00,,,0.00,,2013-12-15 04:13:00,
2013-12-14 20:23:00,38.0,37.0,30.38,SSW,207,0.0,1.0,95,0.00,,,0.00,,2013-12-15 04:23:00,
2013-12-14 20:43:00,37.0,35.0,30.38,SSW,207,0.0,2.0,94,0.00,,,0.00,,2013-12-15 04:43:00,
2013-12-14 20:53:00,36.0,35.0,30.38,SSW,207,0.0,0.0,95,0.00,,,0.00,,2013-12-15 04:53:00,
2013-12-14 21:22:00,34.0,33.0,30.39,SSW,207,0.0,1.0,95,0.00,,,0.00,,2013-12-15 05:22:00,
2013-12-14 21:42:00,34.0,33.0,30.38,SSW,207,0.0,3.0,95,0.00,,,0.00,,2013-12-15 05:42:00,
2013-12-14 21:53:00,34.0,33.0,30.38,SSW,207,0.0,2.0,95,0.00,,,0.00,,2013-12-15 05:53:00,
2013-12-14 22:11:00,34.0,33.0,30.40,SSW,207,0.0,0.0,96,0.00,,,0.00,,2013-12-15 06:11:00,
2013-12-14 22:22:00,34.0,33.0,30.39,SSW,207,0.0,0.0,96,0.00,,,0.00,,2013-12-15 06:22:00,
2013-12-14 22:52:00,33.0,32.0,30.39,SSW,207,1.0,2.0,96,0.00,,,0.00,,2013-12-15 06:52:00,
2013-12-14 23:11:00,33.0,32.0,30.40,SSW,207,0.0,1.0,95,0.00,,,0.00,,2013-12-15 07:11:00,
2013-12-14 23:21:00,32.0,31.0,30.40,SSW,207,0.0,0.0,95,0.00,,,0.00,,2013-12-15 07:21:00,
2013-12-14 23:41:00,32.0,31.0,30.41,SSW,207,0.0,1.0,96,0.00,,,0.00,,2013-12-15 07:41:00,
2013-12-14 23:52:00,32.0,31.0,30.41,SSW,207,1.0,3.0,96,0.00,,,0.00,,2013-12-15 07:52:00,